Davis, West Virginia
Current Conditions -  °F | °C
As of 6:55 AM on Wednesday 28 Jan 2015 (Local Time) from KW99 Reporting Station
Clear Clear  
Wind Chill: 11°   Ceiling: Unl
Heat Index: 11°   Visibility: 7mi
Dew Point:   Wind: 0mph
Humidity: 92%   Direction: NA
Pressure: 30.21"   Gusts: NA
Location:  39.13°N, 79.46°W
Report Text: KW99 281155Z AUTO 00000KT 7SM CLR M12/M13 A3021 RMK AO2 6//// 7//// T11181129 11064 21123 PNO
Loading
Personal Weather Stations






























Interactive Weather Map New forecast layout! Learn more

10-Day Weather Forecast

Advertisements
Track Severe Weather on mobile